Time;durP1;ratioP1;P1;durP2;ratioP2;P2;SDS_P1;SDS_P2;PMS_P1;PMS_P2;Temp;Humidity;BMP_temperature;BMP_pressure;BME280_temperature;BME280_humidity;BME280_pressure;Samples;Min_cycle;Max_cycle;Signal;HPM_P1;HPM_P2
2023/03/21 00:01:30;;;;;;;69.22;46.10;;;;;;;10.69;85.05;101560.28;6172005;23;20024;-82
2023/03/21 00:03:57;;;;;;;58.63;42.90;;;;;;;10.67;84.68;101560.38;6195123;23;20044;-82
2023/03/21 00:06:26;;;;;;;67.63;43.63;;;;;;;10.65;84.98;101559.63;6155485;23;20021;-82
2023/03/21 00:08:57;;;;;;;68.35;44.47;;;;;;;9.97;84.89;101454.88;6195744;23;20028;-81
2023/03/21 00:11:23;;;;;;;67.80;45.33;;;;;;;10.23;85.51;101502.56;6175802;23;20024;-80
2023/03/21 00:13:52;;;;;;;64.97;45.75;;;;;;;10.51;85.52;101565.13;6153552;23;20389;-80
2023/03/21 00:16:31;;;;;;;67.18;44.45;;;;;;;10.44;85.58;101554.13;6183208;23;20032;-82
2023/03/21 00:19:02;;;;;;;71.32;47.83;;;;;;;9.63;85.47;101429.97;6163830;23;20074;-81
2023/03/21 00:21:32;;;;;;;71.05;46.03;;;;;;;10.40;85.15;101557.94;6195148;23;20024;-80
2023/03/21 00:24:20;;;;;;;73.75;47.50;;;;;;;9.75;84.10;101458.25;6159435;23;20296;-82
2023/03/21 00:26:51;;;;;;;72.57;46.90;;;;;;;10.24;85.28;101541.41;6174231;23;20019;-81
2023/03/21 00:29:48;;;;;;;72.60;46.55;;;;;;;10.15;84.89;101524.34;6175915;23;20103;-81
2023/03/21 00:32:21;;;;;;;71.45;47.38;;;;;;;10.16;85.37;101530.50;6161243;23;20377;-79
2023/03/21 00:34:54;;;;;;;69.60;46.45;;;;;;;9.75;85.16;101465.38;6172763;23;20479;-82
2023/03/21 00:37:43;;;;;;;74.05;46.67;;;;;;;9.79;85.20;101470.34;6183555;23;20375;-82
2023/03/21 00:40:19;;;;;;;74.40;45.43;;;;;;;10.26;85.54;101550.09;6175124;23;20024;-83
2023/03/21 00:42:58;;;;;;;75.85;46.15;;;;;;;10.18;86.02;101521.47;6181197;23;20325;-83
2023/03/21 00:45:26;;;;;;;130.10;52.67;;;;;;;10.39;86.05;101545.66;6169897;23;20023;-83
2023/03/21 00:47:56;;;;;;;107.50;49.83;;;;;;;10.26;85.32;101513.78;6179369;23;20028;-82
2023/03/21 00:50:24;;;;;;;98.73;49.47;;;;;;;10.33;85.62;101527.50;6156652;23;20245;-83
2023/03/21 00:52:54;;;;;;;94.40;48.50;;;;;;;10.22;85.13;101516.81;6163860;23;20034;-83
2023/03/21 00:55:21;;;;;;;89.47;45.42;;;;;;;9.89;85.53;101481.13;6170099;23;20181;-81
2023/03/21 00:57:52;;;;;;;105.85;49.00;;;;;;;10.01;85.95;101501.47;6149299;23;20452;-81
2023/03/21 01:00:28;;;;;;;83.32;48.15;;;;;;;10.06;86.49;101501.97;6182528;23;20020;-81
2023/03/21 01:02:56;;;;;;;70.80;44.80;;;;;;;10.01;85.90;101493.50;6133229;23;20086;-80
2023/03/21 01:06:05;;;;;;;84.75;47.25;;;;;;;9.61;85.60;101438.06;6153506;23;20259;-79
2023/03/21 01:08:39;;;;;;;75.55;46.58;;;;;;;10.10;85.68;101502.63;6166233;23;20197;-81
2023/03/21 01:11:23;;;;;;;78.80;46.67;;;;;;;9.99;86.00;101479.50;6138296;23;20301;-82
2023/03/21 01:13:51;;;;;;;69.88;44.45;;;;;;;10.13;85.68;101507.69;6156143;23;20387;-81
2023/03/21 01:16:30;;;;;;;71.15;47.50;;;;;;;9.99;85.29;101481.31;6174240;23;20035;-81
2023/03/21 01:18:58;;;;;;;78.50;46.83;;;;;;;10.01;85.00;101493.50;6145926;23;20360;-80
2023/03/21 01:21:25;;;;;;;86.20;48.42;;;;;;;10.00;85.68;101489.19;6162295;23;20520;-80
2023/03/21 01:23:55;;;;;;;77.82;48.97;;;;;;;10.00;85.69;101490.97;6179140;23;20028;-81
2023/03/21 01:26:23;;;;;;;77.05;48.33;;;;;;;9.82;85.13;101461.31;6178635;23;20020;-81
2023/03/21 01:28:54;;;;;;;75.53;47.90;;;;;;;9.96;85.28;101485.03;6141576;23;20468;-81
2023/03/21 01:31:21;;;;;;;81.30;50.38;;;;;;;9.95;85.85;101477.19;6182285;23;20031;-82
2023/03/21 01:33:51;;;;;;;78.03;49.60;;;;;;;9.92;85.11;101451.72;6158380;23;20490;-81
2023/03/21 01:36:21;;;;;;;81.65;49.65;;;;;;;10.06;85.10;101485.22;6164688;23;20025;-80
2023/03/21 01:38:58;;;;;;;73.75;47.45;;;;;;;10.00;84.89;101475.03;6169267;23;20334;-80
2023/03/21 01:41:29;;;;;;;82.45;49.17;;;;;;;9.40;85.34;101368.03;6166355;23;20024;-81
2023/03/21 01:44:18;;;;;;;82.07;48.42;;;;;;;10.11;84.86;101472.47;6150483;23;20593;-81
2023/03/21 01:46:51;;;;;;;78.60;47.95;;;;;;;9.84;84.96;101438.19;6158899;23;20050;-81
2023/03/21 01:49:45;;;;;;;74.43;45.50;;;;;;;9.98;85.51;101469.88;6163766;23;20020;-79
2023/03/21 01:52:16;;;;;;;77.68;48.40;;;;;;;10.04;85.72;101466.75;6176401;23;20052;-81
2023/03/21 01:55:03;;;;;;;75.82;45.55;;;;;;;9.87;84.54;101422.03;6164864;23;20048;-81
2023/03/21 01:57:38;;;;;;;73.03;46.13;;;;;;;10.03;84.70;101465.06;6185187;23;20016;-82
2023/03/21 02:00:37;;;;;;;69.05;44.92;;;;;;;9.66;84.74;101397.97;6155381;23;20090;-81
2023/03/21 02:03:07;;;;;;;73.88;46.42;;;;;;;9.97;84.52;101454.88;6138224;23;20810;-80
2023/03/21 02:06:00;;;;;;;76.35;48.47;;;;;;;9.51;84.52;101399.88;6170385;23;20021;-82
2023/03/21 02:08:31;;;;;;;74.50;47.65;;;;;;;9.73;85.28;101440.75;6174342;23;20017;-80
2023/03/21 02:11:08;;;;;;;80.28;49.88;;;;;;;9.59;85.32;101428.50;6176614;23;20086;-82
2023/03/21 02:13:36;;;;;;;81.80;48.78;;;;;;;8.95;85.24;101314.69;6181763;23;20024;-81
2023/03/21 02:16:24;;;;;;;80.63;50.25;;;;;;;9.93;85.15;101456.09;6177133;23;20024;-81
2023/03/21 02:19:03;;;;;;;75.72;48.72;;;;;;;9.88;85.25;101458.22;6177609;23;20032;-82
2023/03/21 02:21:57;;;;;;;73.40;47.30;;;;;;;9.79;84.61;101440.34;6185335;23;20020;-80
2023/03/21 02:24:37;;;;;;;79.55;47.58;;;;;;;9.81;85.63;101449.03;6169846;23;20352;-81
2023/03/21 02:27:07;;;;;;;80.97;48.88;;;;;;;9.80;85.26;101450.81;6166803;23;20582;-79
2023/03/21 02:30:03;;;;;;;78.65;47.95;;;;;;;9.74;85.44;101447.78;6194755;23;20021;-81
2023/03/21 02:33:18;;;;;;;74.75;49.58;;;;;;;9.73;85.95;101446.06;6186634;23;20016;-82
2023/03/21 02:36:25;;;;;;;83.90;51.35;;;;;;;9.76;85.65;101444.06;6165629;23;20347;-80
2023/03/21 02:38:55;;;;;;;82.38;50.50;;;;;;;9.43;85.63;101389.00;6197155;23;20040;-80
2023/03/21 02:41:35;;;;;;;79.90;48.28;;;;;;;9.77;85.39;101436.94;6175076;23;20401;-81
2023/03/21 02:44:40;;;;;;;78.88;47.63;;;;;;;9.78;86.06;101434.19;6167337;23;20051;-79
2023/03/21 02:47:22;;;;;;;81.78;50.03;;;;;;;9.39;85.23;101368.94;6160975;23;20012;-82
2023/03/21 02:49:52;;;;;;;81.27;50.63;;;;;;;9.51;84.84;101378.69;6161754;23;20190;-81
2023/03/21 02:52:25;;;;;;;79.43;49.20;;;;;;;9.38;85.06;101375.22;6199755;23;20564;-81
2023/03/21 02:55:18;;;;;;;79.38;49.50;;;;;;;9.75;85.06;101438.84;6172295;23;20028;-80
2023/03/21 02:57:49;;;;;;;82.38;48.90;;;;;;;9.30;84.98;101357.22;6155567;23;20067;-79
2023/03/21 03:00:31;;;;;;;78.22;50.13;;;;;;;9.70;84.93;101427.72;6187547;23;20024;-80
2023/03/21 03:03:31;;;;;;;81.40;51.20;;;;;;;9.34;85.26;101365.78;6144395;23;20399;-83
2023/03/21 03:06:12;;;;;;;74.57;48.20;;;;;;;9.63;85.55;101420.19;6149022;23;20500;-79
2023/03/21 03:09:11;;;;;;;84.55;50.15;;;;;;;9.60;84.91;101399.22;6179190;23;20294;-82
2023/03/21 03:11:42;;;;;;;88.60;51.97;;;;;;;9.57;84.44;101388.84;6183571;23;20110;-81
2023/03/21 03:14:30;;;;;;;77.10;50.50;;;;;;;9.27;84.92;101348.63;6172274;23;20017;-79
2023/03/21 03:17:46;;;;;;;80.53;50.00;;;;;;;9.60;84.81;101419.59;6129385;23;20241;-80
2023/03/21 03:20:35;;;;;;;81.88;50.13;;;;;;;9.52;85.54;101406.06;6145447;23;20253;-82
2023/03/21 03:23:23;;;;;;;85.78;51.05;;;;;;;9.62;86.18;101418.53;6163611;23;20023;-81
2023/03/21 03:26:05;;;;;;;78.95;49.60;;;;;;;9.50;85.44;101397.34;6170115;23;20025;-78
2023/03/21 03:28:52;;;;;;;82.22;50.25;;;;;;;9.56;85.34;101408.38;6165802;23;20056;-81
2023/03/21 03:31:32;;;;;;;87.95;51.47;;;;;;;9.40;85.39;101386.56;6171804;23;20020;-81
2023/03/21 03:34:06;;;;;;;80.88;51.47;;;;;;;9.54;85.43;101415.59;6167389;23;20477;-80
2023/03/21 03:36:38;;;;;;;90.07;51.45;;;;;;;9.47;85.41;101416.97;6159175;23;20028;-81
2023/03/21 03:39:09;;;;;;;87.18;53.58;;;;;;;9.40;84.25;101399.81;6179650;23;20107;-80
2023/03/21 03:41:53;;;;;;;87.68;53.75;;;;;;;9.09;84.39;101346.34;6156476;23;20028;-83
2023/03/21 03:44:40;;;;;;;83.32;52.55;;;;;;;9.25;84.80;101374.38;6173151;23;20016;-80
2023/03/21 03:47:15;;;;;;;89.50;53.90;;;;;;;9.55;84.99;101417.28;6172876;23;20027;-81
2023/03/21 03:50:12;;;;;;;91.45;52.30;;;;;;;9.34;85.17;101393.13;6149329;23;20480;-80
2023/03/21 03:53:15;;;;;;;83.90;50.92;;;;;;;9.56;86.02;101431.38;6146439;23;20869;-78
2023/03/21 03:55:45;;;;;;;89.68;53.88;;;;;;;9.52;85.49;101429.91;6163696;23;20319;-80
2023/03/21 03:58:33;;;;;;;88.75;53.42;;;;;;;9.53;85.74;101428.94;6154715;23;20384;-82
2023/03/21 04:01:16;;;;;;;82.93;50.85;;;;;;;9.47;85.95;101424.94;6117253;23;20584;-80
2023/03/21 04:03:49;;;;;;;88.30;53.58;;;;;;;9.47;85.58;101416.97;6177632;23;20381;-79
2023/03/21 04:06:34;;;;;;;94.20;54.53;;;;;;;9.55;85.21;101433.16;6157354;23;20056;-83
2023/03/21 04:09:03;;;;;;;86.82;53.80;;;;;;;9.52;85.05;101427.25;6179615;23;20058;-81
2023/03/21 04:11:46;;;;;;;86.93;51.92;;;;;;;9.52;85.59;101433.41;6160571;23;20136;-80
2023/03/21 04:14:12;;;;;;;89.75;53.17;;;;;;;9.49;85.59;101423.03;6175195;23;20277;-80
2023/03/21 04:16:42;;;;;;;86.55;53.53;;;;;;;9.48;85.75;101423.13;6187060;23;20206;-83
2023/03/21 04:19:18;;;;;;;86.72;52.65;;;;;;;9.28;85.28;101392.75;6184175;23;20525;-80
2023/03/21 04:21:46;;;;;;;88.03;52.17;;;;;;;9.35;85.61;101399.31;6136435;23;20021;-81
2023/03/21 04:24:13;;;;;;;89.72;54.65;;;;;;;9.31;86.04;101397.81;6191116;23;20031;-80
2023/03/21 04:26:42;;;;;;;88.82;51.90;;;;;;;9.19;86.16;101373.88;6179350;23;20183;-81
2023/03/21 04:29:09;;;;;;;87.22;53.10;;;;;;;9.50;86.12;101414.09;6183354;23;20012;-82
2023/03/21 04:31:42;;;;;;;90.25;53.80;;;;;;;9.53;86.09;101411.22;6180220;23;20036;-79
2023/03/21 04:34:11;;;;;;;93.95;52.13;;;;;;;9.41;84.89;101394.38;6186947;23;20032;-80
2023/03/21 04:36:44;;;;;;;95.65;52.47;;;;;;;9.44;85.25;101406.56;6182997;23;20013;-80
2023/03/21 04:39:12;;;;;;;85.60;51.95;;;;;;;9.42;85.49;101395.25;6167403;23;20711;-81
2023/03/21 04:41:42;;;;;;;95.65;53.33;;;;;;;9.49;85.30;101427.44;6142736;23;20025;-81
2023/03/21 04:44:14;;;;;;;91.00;53.00;;;;;;;9.40;85.49;101418.38;6189397;23;20641;-80
2023/03/21 04:46:44;;;;;;;91.03;53.90;;;;;;;9.42;85.41;101432.38;6158851;23;20440;-80
2023/03/21 04:49:20;;;;;;;99.55;53.08;;;;;;;9.49;85.52;101428.31;6188022;23;20020;-83
2023/03/21 04:51:56;;;;;;;97.68;54.88;;;;;;;9.51;84.96;101431.69;6189713;23;20291;-81
2023/03/21 04:54:24;;;;;;;106.13;54.70;;;;;;;9.45;83.91;101399.50;6197272;23;20302;-83
2023/03/21 04:56:55;;;;;;;113.97;55.40;;;;;;;9.46;83.57;101393.22;6181883;23;20429;-82
2023/03/21 04:59:25;;;;;;;101.45;55.33;;;;;;;9.40;82.87;101383.91;6188139;23;20017;-80
2023/03/21 05:01:52;;;;;;;103.03;54.55;;;;;;;9.25;83.45;101362.00;6175918;23;20074;-79
2023/03/21 05:04:21;;;;;;;95.65;53.55;;;;;;;9.37;82.76;101381.50;6173433;23;20032;-83
2023/03/21 05:06:48;;;;;;;97.82;53.15;;;;;;;9.55;82.79;101390.75;6185605;23;20099;-82
2023/03/21 05:09:15;;;;;;;97.38;53.20;;;;;;;9.44;83.07;101387.19;6168479;23;20332;-80
2023/03/21 05:11:42;;;;;;;91.10;51.70;;;;;;;9.58;83.22;101430.28;6184641;23;20032;-82
2023/03/21 05:14:22;;;;;;;93.45;53.85;;;;;;;8.81;83.59;101304.22;6182396;23;20031;-82
2023/03/21 05:17:00;;;;;;;94.90;52.70;;;;;;;9.53;83.25;101407.72;6168962;23;20107;-79
2023/03/21 05:19:33;;;;;;;105.88;55.90;;;;;;;9.68;82.31;101421.69;6158939;23;20023;-82
2023/03/21 05:22:10;;;;;;;98.20;53.10;;;;;;;9.53;82.60;101399.78;6195508;23;20028;-81
2023/03/21 05:24:48;;;;;;;96.32;53.25;;;;;;;9.64;82.29;101405.16;6140486;23;20081;-82
2023/03/21 05:27:36;;;;;;;99.95;53.08;;;;;;;9.11;82.62;101320.59;6152285;23;20209;-81
2023/03/21 05:30:16;;;;;;;99.82;56.45;;;;;;;9.61;82.63;101419.50;6156290;23;20044;-80
2023/03/21 05:32:47;;;;;;;98.22;54.15;;;;;;;9.44;82.69;101390.66;6159944;23;20385;-80
2023/03/21 05:35:13;;;;;;;98.43;53.15;;;;;;;9.58;83.04;101445.34;6184791;23;20020;-80
2023/03/21 05:37:43;;;;;;;99.78;55.58;;;;;;;9.32;84.14;101410.97;6185642;23;20017;-81
2023/03/21 05:40:11;;;;;;;104.55;57.55;;;;;;;9.44;83.96;101434.88;6179943;23;20091;-79
2023/03/21 05:42:45;;;;;;;94.93;53.55;;;;;;;9.18;83.80;101409.28;6172589;23;20032;-85
2023/03/21 05:45:13;;;;;;;98.15;54.60;;;;;;;9.30;83.45;101449.13;6174559;23;20016;-81
2023/03/21 05:47:40;;;;;;;103.63;57.60;;;;;;;9.36;84.09;101454.81;6169766;23;20329;-80
2023/03/21 05:50:07;;;;;;;93.10;55.50;;;;;;;9.30;84.48;101438.53;6175056;23;20024;-80
2023/03/21 05:52:34;;;;;;;101.57;55.90;;;;;;;9.36;84.94;101459.28;6189549;23;20590;-80
2023/03/21 05:55:06;;;;;;;95.30;55.88;;;;;;;9.29;84.54;101465.97;6177647;23;20067;-81
2023/03/21 05:57:47;;;;;;;91.40;53.97;;;;;;;9.19;84.97;101440.09;6169336;23;20035;-80
2023/03/21 06:00:14;;;;;;;96.05;54.97;;;;;;;9.03;85.36;101404.19;6184092;23;20096;-82
2023/03/21 06:02:41;;;;;;;94.80;55.42;;;;;;;9.44;84.97;101456.94;6191113;23;20023;-80
2023/03/21 06:05:12;;;;;;;136.27;80.35;;;;;;;9.50;84.87;101455.66;6192073;23;20031;-82
2023/03/21 06:07:39;;;;;;;98.63;54.50;;;;;;;9.35;85.19;101433.75;6191849;23;20017;-81
2023/03/21 06:10:09;;;;;;;96.57;56.72;;;;;;;9.32;85.09;101426.00;6191098;23;20021;-81
2023/03/21 06:12:36;;;;;;;96.00;57.58;;;;;;;9.50;85.69;101456.50;6184322;23;20332;-80
2023/03/21 06:15:05;;;;;;;117.25;57.20;;;;;;;9.59;85.39;101469.13;6178622;23;20024;-80
2023/03/21 06:17:36;;;;;;;113.10;58.05;;;;;;;9.49;85.54;101443.34;6195165;23;20079;-82
2023/03/21 06:20:07;;;;;;;104.72;58.53;;;;;;;9.70;85.92;101481.59;6197078;23;20080;-80
2023/03/21 06:22:35;;;;;;;112.00;59.38;;;;;;;9.64;85.64;101463.50;6193712;23;20073;-81
2023/03/21 06:25:09;;;;;;;112.03;58.72;;;;;;;9.74;85.30;101479.59;6205344;23;20032;-81
2023/03/21 06:27:36;;;;;;;108.43;58.45;;;;;;;9.56;84.80;101439.31;6205656;23;20020;-81
2023/03/21 06:30:04;;;;;;;107.57;60.70;;;;;;;9.78;84.64;101471.31;6192808;23;20426;-81
2023/03/21 06:32:33;;;;;;;111.28;59.50;;;;;;;9.70;84.79;101449.78;6192269;23;20021;-80
2023/03/21 06:35:06;;;;;;;107.00;57.10;;;;;;;9.93;85.47;101479.97;6177069;23;20272;-79
2023/03/21 06:37:33;;;;;;;109.80;59.78;;;;;;;9.97;85.02;101459.34;6180724;23;20040;-81
2023/03/21 06:40:00;;;;;;;109.45;60.08;;;;;;;10.03;84.83;101464.22;6192531;23;20027;-81
2023/03/21 06:42:28;;;;;;;112.53;61.70;;;;;;;10.19;84.79;101469.25;6184888;23;20021;-82
2023/03/21 06:44:55;;;;;;;113.03;61.08;;;;;;;10.21;84.61;101464.69;6183663;23;20025;-80
2023/03/21 06:47:22;;;;;;;111.72;59.88;;;;;;;10.22;83.57;101456.63;6179865;23;20020;-82
2023/03/21 06:49:53;;;;;;;115.57;62.83;;;;;;;10.35;83.75;101466.34;6193940;23;20101;-81
2023/03/21 06:52:24;;;;;;;109.85;60.08;;;;;;;9.90;83.53;101375.88;6187064;23;20444;-82
2023/03/21 06:54:51;;;;;;;125.15;59.33;;;;;;;9.96;83.84;101389.56;6194377;23;20051;-78
2023/03/21 06:57:20;;;;;;;105.30;58.90;;;;;;;10.58;83.61;101465.50;6192232;23;20036;-80
2023/03/21 06:59:47;;;;;;;103.07;58.38;;;;;;;10.63;84.21;101459.81;6194843;23;20091;-78
2023/03/21 07:02:14;;;;;;;108.30;58.67;;;;;;;10.80;83.68;101480.66;6192995;23;20348;-79
2023/03/21 07:04:46;;;;;;;;;;;;;;;10.84;82.81;101474.13;6195173;23;20025;-80
2023/03/21 07:07:12;;;;;;;118.30;60.80;;;;;;;10.74;82.39;101446.56;6200874;23;20343;-80
2023/03/21 07:09:39;;;;;;;107.45;59.65;;;;;;;11.04;82.70;101471.75;6157712;23;20527;-82
2023/03/21 07:12:06;;;;;;;113.68;60.38;;;;;;;10.85;81.46;101441.28;6188340;23;20017;-81
2023/03/21 07:14:42;;;;;;;118.85;62.38;;;;;;;11.07;81.24;101458.25;6175814;23;20291;-81
2023/03/21 07:17:16;;;;;;;115.78;60.95;;;;;;;11.22;81.01;101465.00;6193655;23;20027;-79
2023/03/21 07:19:46;;;;;;;101.40;58.40;;;;;;;11.13;79.88;101441.81;6167508;23;20098;-82
2023/03/21 07:22:16;;;;;;;109.28;57.95;;;;;;;11.14;78.72;101427.56;6166689;23;20021;-81
2023/03/21 07:24:43;;;;;;;108.55;59.38;;;;;;;11.36;77.50;101433.81;6171259;23;20103;-80
2023/03/21 07:27:15;;;;;;;100.00;59.13;;;;;;;11.52;78.07;101460.91;6197703;23;20348;-80
2023/03/21 07:29:43;;;;;;;91.97;54.50;;;;;;;11.69;77.48;101473.69;6167155;23;20303;-80
2023/03/21 07:32:13;;;;;;;99.88;57.88;;;;;;;11.49;77.11;101435.41;6191803;23;20052;-81
2023/03/21 07:34:43;;;;;;;97.72;57.70;;;;;;;11.80;77.30;101477.34;6163389;23;20078;-78
2023/03/21 07:37:30;;;;;;;90.05;52.97;;;;;;;11.82;75.01;101439.00;6163236;23;20402;-82
2023/03/21 07:39:59;;;;;;;104.82;54.45;;;;;;;12.01;74.96;101456.97;6167357;23;20024;-82
2023/03/21 07:42:26;;;;;;;90.00;53.78;;;;;;;12.24;74.79;101484.41;6187242;23;20020;-81
2023/03/21 07:44:59;;;;;;;93.95;51.53;;;;;;;11.83;73.93;101405.25;6141634;23;20051;-81
2023/03/21 07:47:28;;;;;;;90.13;54.13;;;;;;;12.21;73.59;101459.84;6181039;23;20020;-82
2023/03/21 07:49:55;;;;;;;92.03;52.15;;;;;;;12.45;72.89;101486.25;6162118;23;20021;-81
2023/03/21 07:52:24;;;;;;;89.00;50.90;;;;;;;11.86;72.51;101373.91;6161302;23;20356;-81
2023/03/21 07:54:57;;;;;;;87.35;51.33;;;;;;;11.87;71.64;101358.81;6186703;23;20464;-81
2023/03/21 07:57:24;;;;;;;90.68;50.10;;;;;;;11.99;71.71;101376.47;6152866;23;20020;-80
2023/03/21 07:59:50;;;;;;;84.72;50.42;;;;;;;12.74;70.97;101475.81;6197389;23;20289;-82
2023/03/21 08:02:17;;;;;;;87.22;50.30;;;;;;;12.81;70.24;101487.66;6168312;23;20025;-82
2023/03/21 08:04:48;;;;;;;82.60;49.83;;;;;;;12.12;69.90;101369.13;6169410;23;20443;-80
2023/03/21 08:07:20;;;;;;;;;;;;;;;12.88;70.25;101488.00;6198354;23;20229;-80
2023/03/21 08:09:49;;;;;;;;;;;;;;;12.89;69.43;101485.22;6194242;23;19974;-77
2023/03/21 08:12:18;;;;;;;78.97;47.78;;;;;;;12.65;70.30;101445.50;6173035;23;19923;-80
2023/03/21 08:14:51;;;;;;;87.07;50.88;;;;;;;12.96;70.79;101489.06;6164473;23;20290;-79
2023/03/21 08:17:20;;;;;;;84.82;50.08;;;;;;;13.00;70.55;101482.47;6162146;23;20524;-80
2023/03/21 08:19:48;;;;;;;84.22;50.08;;;;;;;13.09;69.86;101485.34;6180513;23;20027;-80
2023/03/21 08:22:17;;;;;;;86.40;50.53;;;;;;;13.20;69.46;101482.56;6179783;23;20023;-81
2023/03/21 08:24:44;;;;;;;77.40;49.10;;;;;;;13.31;69.38;101487.88;6154149;23;20025;-80
2023/03/21 08:27:17;;;;;;;77.30;48.38;;;;;;;13.05;68.50;101436.75;6156908;23;20087;-80
2023/03/21 08:30:01;;;;;;;72.55;46.80;;;;;;;12.30;68.10;101299.34;6136341;23;20306;-80
2023/03/21 08:32:37;;;;;;;81.55;47.33;;;;;;;12.45;68.05;101338.00;6183537;23;20076;-82
2023/03/21 08:35:12;;;;;;;78.75;46.92;;;;;;;13.37;68.66;101494.50;6181309;23;20051;-80
2023/03/21 08:37:43;;;;;;;74.57;46.05;;;;;;;13.45;67.79;101495.53;6156127;23;20098;-79
2023/03/21 08:40:15;;;;;;;73.40;46.22;;;;;;;13.51;66.96;101490.63;6183481;23;20290;-81
2023/03/21 08:42:55;;;;;;;68.75;44.40;;;;;;;13.62;66.13;101490.53;6179419;23;20020;-78
2023/03/21 08:45:28;;;;;;;77.40;44.65;;;;;;;13.39;66.43;101456.03;6175722;23;20348;-80
2023/03/21 08:47:57;;;;;;;73.00;44.25;;;;;;;13.60;66.45;101487.16;6187088;23;20367;-78
2023/03/21 08:50:39;;;;;;;74.60;45.08;;;;;;;13.63;65.17;101476.22;6153320;23;20241;-79
2023/03/21 08:53:06;;;;;;;70.63;44.42;;;;;;;13.55;65.75;101468.06;6148106;23;20035;-79
2023/03/21 08:55:35;;;;;;;68.55;41.70;;;;;;;13.59;66.21;101474.78;6177350;23;20025;-83
2023/03/21 08:58:08;;;;;;;71.15;45.10;;;;;;;13.80;64.98;101486.25;6193798;23;20027;-81
2023/03/21 09:00:40;;;;;;;70.80;44.15;;;;;;;13.56;64.42;101419.88;6190084;23;20020;-81
2023/03/21 09:03:07;;;;;;;73.13;43.78;;;;;;;13.56;65.31;101413.69;6176444;23;20333;-80
2023/03/21 09:05:37;;;;;;;75.00;44.50;;;;;;;13.88;64.99;101469.53;6190979;23;20020;-80
2023/03/21 09:08:07;;;;;;;70.88;43.88;;;;;;;14.03;65.05;101470.84;6194123;23;20017;-81
2023/03/21 09:10:36;;;;;;;67.38;43.85;;;;;;;13.98;64.38;101458.88;6184000;23;20810;-81
2023/03/21 09:13:09;;;;;;;64.00;43.90;;;;;;;14.07;63.42;101464.22;6173349;23;20077;-79
2023/03/21 09:15:39;;;;;;;74.53;43.30;;;;;;;14.18;63.88;101473.97;6184863;23;20016;-82
2023/03/21 09:18:13;;;;;;;70.10;44.03;;;;;;;13.86;64.83;101426.16;6173329;23;20465;-80
2023/03/21 09:20:54;;;;;;;74.60;45.05;;;;;;;14.31;65.03;101473.69;6185199;23;20633;-82
2023/03/21 09:23:22;;;;;;;84.78;46.38;;;;;;;14.36;63.91;101465.25;6163052;23;20353;-82
2023/03/21 09:25:52;;;;;;;77.38;45.75;;;;;;;14.08;63.35;101396.53;6161304;23;20025;-83
2023/03/21 09:28:20;;;;;;;72.15;46.70;;;;;;;14.46;63.84;101437.56;6162356;23;20062;-81
2023/03/21 09:30:54;;;;;;;74.47;45.25;;;;;;;14.32;64.27;101390.75;6187355;23;20021;-82
2023/03/21 09:33:24;;;;;;;66.82;46.20;;;;;;;14.19;64.46;101352.81;6193097;23;20028;-84
2023/03/21 09:35:59;;;;;;;;;;;;;;;14.73;64.43;101419.97;6172884;23;20025;-81
2023/03/21 09:38:29;;;;;;;75.68;48.65;;;;;;;15.13;63.66;101465.19;6163523;23;19916;-81
2023/03/21 09:41:16;;;;;;;78.80;48.70;;;;;;;15.39;62.60;101475.25;6195390;23;20052;-80
2023/03/21 09:44:16;;;;;;;78.82;48.88;;;;;;;14.64;62.52;101317.47;6197003;23;20536;-82
2023/03/21 09:47:12;;;;;;;85.40;53.65;;;;;;;15.50;62.11;101440.28;6163621;23;20025;-82
2023/03/21 09:49:47;;;;;;;85.13;52.47;;;;;;;15.56;62.63;101438.84;6171513;23;20145;-81
2023/03/21 09:52:38;;;;;;;83.95;51.30;;;;;;;16.05;61.13;101479.59;6169462;23;20035;-83
2023/03/21 09:55:25;;;;;;;79.50;50.40;;;;;;;16.26;60.87;101471.25;6173836;23;20095;-84
2023/03/21 09:58:19;;;;;;;95.05;56.42;;;;;;;16.52;59.42;101473.19;6170301;23;20395;-83
2023/03/21 10:01:26;;;;;;;81.85;52.50;;;;;;;16.40;61.05;101468.06;6157611;23;20028;-82
2023/03/21 10:03:49;;;;;;;84.25;51.78;;;;;;;16.06;60.39;101387.53;6187901;23;20028;-82
2023/03/21 10:06:33;;;;;;;79.53;52.72;;;;;;;16.87;59.49;101478.53;6197361;23;20021;-79
2023/03/21 10:09:33;;;;;;;79.43;51.03;;;;;;;16.96;58.25;101478.59;6196143;23;20264;-83
2023/03/21 10:12:15;;;;;;;84.63;50.25;;;;;;;15.79;58.98;101265.31;6166347;23;20055;-81
2023/03/21 10:15:13;;;;;;;86.85;49.60;;;;;;;17.30;58.40;101471.41;6187403;23;20117;-82
2023/03/21 10:17:47;;;;;;;73.97;48.65;;;;;;;16.52;57.10;101334.66;6168273;23;20412;-80
2023/03/21 10:20:30;;;;;;;77.78;51.40;;;;;;;17.33;57.21;101461.38;6177929;23;20106;-82
2023/03/21 10:23:02;;;;;;;77.30;51.05;;;;;;;17.49;57.39;101450.72;6197512;23;20021;-81
2023/03/21 10:25:33;;;;;;;81.22;51.15;;;;;;;17.63;57.67;101435.84;6161003;23;20589;-83
2023/03/21 10:28:16;;;;;;;79.63;50.20;;;;;;;17.94;56.71;101461.16;6182681;23;20353;-83
2023/03/21 10:31:03;;;;;;;76.40;50.17;;;;;;;17.25;55.79;101326.16;6162651;23;20330;-80
2023/03/21 10:33:41;;;;;;;80.55;53.10;;;;;;;17.87;56.44;101389.47;6190015;23;20615;-81
2023/03/21 10:36:26;;;;;;;83.45;54.42;;;;;;;17.61;55.23;101320.56;6204881;23;20036;-81
2023/03/21 10:39:03;;;;;;;77.20;50.47;;;;;;;18.18;55.87;101396.88;6160277;23;20345;-82
2023/03/21 10:41:33;;;;;;;80.03;51.25;;;;;;;18.25;55.21;101381.75;6201765;23;20314;-82
2023/03/21 10:44:33;;;;;;;68.43;45.90;;;;;;;18.79;52.01;101444.78;6166867;23;20111;-82
2023/03/21 10:47:08;;;;;;;55.95;36.65;;;;;;;18.26;50.14;101356.59;6166254;23;20027;-80
2023/03/21 10:49:45;;;;;;;57.95;36.80;;;;;;;18.79;50.41;101433.19;6168777;23;20445;-82
2023/03/21 10:52:40;;;;;;;55.15;37.33;;;;;;;18.96;50.20;101439.41;6187860;23;20020;-81
2023/03/21 10:55:30;;;;;;;57.83;36.88;;;;;;;19.10;49.46;101427.94;6191111;23;20480;-83
2023/03/21 10:58:02;;;;;;;57.20;40.10;;;;;;;19.29;49.72;101432.06;6165566;23;20266;-82
2023/03/21 11:00:40;;;;;;;63.28;40.90;;;;;;;18.91;49.72;101344.88;6188291;23;20016;-82
2023/03/21 11:03:23;;;;;;;60.45;41.60;;;;;;;19.14;50.45;101358.44;6165356;23;20021;-81
2023/03/21 11:05:57;;;;;;;58.63;39.33;;;;;;;19.71;48.96;101439.00;6140270;23;20013;-81
2023/03/21 11:08:28;;;;;;;44.83;32.28;;;;;;;19.37;48.80;101372.81;6132682;23;20035;-83
2023/03/21 11:11:16;;;;;;;51.08;33.80;;;;;;;19.10;47.39;101301.44;6134769;23;20067;-82
2023/03/21 11:13:56;;;;;;;62.67;40.70;;;;;;;19.73;48.71;101388.44;6144925;23;20260;-81
2023/03/21 11:16:39;;;;;;;63.97;42.00;;;;;;;20.26;48.81;101432.56;6119856;23;20768;-82
2023/03/21 11:19:48;;;;;;;54.83;40.10;;;;;;;20.38;48.03;101424.91;6134104;23;20021;-80
2023/03/21 11:22:20;;;;;;;57.65;41.47;;;;;;;20.47;48.19;101431.06;6093262;23;20020;-80
2023/03/21 11:24:58;;;;;;;59.22;43.10;;;;;;;20.38;47.77;101399.81;6155591;23;20192;-83
2023/03/21 11:27:33;;;;;;;56.38;39.13;;;;;;;20.31;48.12;101364.63;6135896;23;20174;-82
2023/03/21 11:30:20;;;;;;;57.33;41.15;;;;;;;20.51;47.66;101408.13;6138651;23;20039;-80
2023/03/21 11:32:55;;;;;;;59.58;41.55;;;;;;;20.38;47.79;101354.78;6141050;23;20017;-81
2023/03/21 11:35:31;;;;;;;58.47;44.00;;;;;;;20.05;46.99;101285.00;6154993;23;20056;-83
2023/03/21 11:38:03;;;;;;;59.03;39.97;;;;;;;20.69;47.17;101362.78;6133864;23;20240;-83
2023/03/21 11:40:38;;;;;;;55.50;38.22;;;;;;;20.39;46.87;101310.63;6166171;23;20271;-82
2023/03/21 11:43:18;;;;;;;54.65;40.25;;;;;;;20.29;46.58;101280.38;6162216;23;20385;-81
2023/03/21 11:45:56;;;;;;;60.28;37.92;;;;;;;20.80;45.99;101384.94;6139823;23;20025;-80
2023/03/21 11:48:27;;;;;;;59.00;38.15;;;;;;;20.38;46.49;101313.50;6139077;23;20075;-82
2023/03/21 11:54:54;;;;;;;51.78;38.20;;;;;;;21.09;45.38;101371.47;6166417;23;20047;-82